createdAt,value
2017-09-08T00:00:53.774Z,988.2
2017-09-08T00:01:54.568Z,988.2
2017-09-08T00:02:55.238Z,988.2
2017-09-08T00:03:55.952Z,988.2
2017-09-08T00:04:56.705Z,988.2
2017-09-08T00:05:57.467Z,988.1
2017-09-08T00:06:58.177Z,988.1
2017-09-08T00:07:59.617Z,988.1
2017-09-08T00:09:00.296Z,988.1
2017-09-08T00:10:01.042Z,988.1
2017-09-08T00:11:02.210Z,988.1
2017-09-08T00:12:03.137Z,988.1
2017-09-08T00:13:03.948Z,988.0
2017-09-08T00:14:04.730Z,988.1
2017-09-08T00:15:05.508Z,988.1
2017-09-08T00:16:06.223Z,988.0
2017-09-08T00:17:07.061Z,988.1
2017-09-08T00:18:08.249Z,988.0
2017-09-08T00:19:09.275Z,988.0
2017-09-08T00:20:10.628Z,988.0
2017-09-08T00:21:11.336Z,988.0
2017-09-08T00:22:12.041Z,988.0
2017-09-08T00:23:12.765Z,988.0
2017-09-08T00:24:13.756Z,988.0
2017-09-08T00:25:14.432Z,987.9
2017-09-08T00:26:15.168Z,987.9
2017-09-08T00:27:15.905Z,987.9
2017-09-08T00:28:16.662Z,987.9
2017-09-08T00:29:17.627Z,987.9
2017-09-08T00:31:33.851Z,987.9
2017-09-08T00:32:34.548Z,987.9
2017-09-08T00:33:35.330Z,987.9
2017-09-08T00:34:36.088Z,987.8
2017-09-08T00:35:36.817Z,987.8
2017-09-08T00:36:37.644Z,987.8
2017-09-08T00:38:54.135Z,987.8
2017-09-08T00:39:55.124Z,987.8
2017-09-08T00:40:56.368Z,987.8
2017-09-08T00:41:57.089Z,987.8
2017-09-08T00:42:57.761Z,987.8
2017-09-08T00:43:58.514Z,987.8
2017-09-08T00:44:59.293Z,987.8
2017-09-08T00:46:00.224Z,987.7
2017-09-08T00:47:01.129Z,987.8
2017-09-08T00:48:02.271Z,987.7
2017-09-08T00:49:02.984Z,987.7
2017-09-08T00:50:03.709Z,987.7
2017-09-08T00:51:04.430Z,987.7
2017-09-08T00:52:05.437Z,987.7
2017-09-08T00:53:06.250Z,987.7
2017-09-08T00:54:07.200Z,987.7
2017-09-08T00:55:08.071Z,987.6
2017-09-08T00:56:09.453Z,987.6
2017-09-08T00:57:10.263Z,987.6
2017-09-08T00:58:11.070Z,987.6
2017-09-08T00:59:11.874Z,987.6
2017-09-08T01:00:12.750Z,987.5
2017-09-08T01:01:13.717Z,987.6
2017-09-08T01:02:14.533Z,987.5
2017-09-08T01:03:15.229Z,987.5
2017-09-08T01:04:16.013Z,987.5
2017-09-08T01:05:16.793Z,987.5
2017-09-08T01:06:17.929Z,987.5
2017-09-08T01:07:18.617Z,987.4
2017-09-08T01:08:19.385Z,987.5
2017-09-08T01:09:20.120Z,987.5
2017-09-08T01:10:20.961Z,987.4
2017-09-08T01:11:21.816Z,987.4
2017-09-08T01:12:22.846Z,987.4
2017-09-08T01:13:23.497Z,987.4
2017-09-08T01:14:24.268Z,987.4
2017-09-08T01:15:25.359Z,987.3
2017-09-08T01:16:26.130Z,987.3
2017-09-08T01:17:26.873Z,987.3
2017-09-08T01:18:27.677Z,987.2
2017-09-08T01:19:28.402Z,987.2
2017-09-08T01:20:29.129Z,987.2
2017-09-08T01:21:29.852Z,987.2
2017-09-08T01:22:30.576Z,987.2
2017-09-08T01:23:31.295Z,987.2
2017-09-08T01:24:32.124Z,987.2
2017-09-08T01:25:32.970Z,987.2
2017-09-08T01:26:33.759Z,987.2
2017-09-08T01:27:34.533Z,987.2
2017-09-08T01:28:35.560Z,987.2
2017-09-08T01:29:36.224Z,987.2
2017-09-08T01:30:37.418Z,987.2
2017-09-08T01:31:38.207Z,987.1
2017-09-08T01:32:39.000Z,987.1
2017-09-08T01:33:39.765Z,987.1
2017-09-08T01:34:40.455Z,987.1
2017-09-08T01:35:41.248Z,987.1
2017-09-08T01:36:42.145Z,987.1
2017-09-08T01:37:43.330Z,987.1
2017-09-08T01:38:43.994Z,987.1
2017-09-08T01:41:00.246Z,987.1
2017-09-08T01:42:00.972Z,987.1
2017-09-08T01:43:01.802Z,987.1
2017-09-08T01:44:02.784Z,987.1
2017-09-08T01:45:03.460Z,987.1
2017-09-08T01:46:04.156Z,987.1
2017-09-08T01:47:04.924Z,987.1
2017-09-08T01:48:05.614Z,987.1
2017-09-08T01:49:06.330Z,987.1
2017-09-08T01:50:07.065Z,987.1
2017-09-08T01:51:08.112Z,987.1
2017-09-08T01:52:09.543Z,987.1
2017-09-08T01:53:10.939Z,987.1
2017-09-08T01:54:11.665Z,987.1
2017-09-08T01:55:12.728Z,987.1
2017-09-08T01:56:13.377Z,987.0
2017-09-08T01:57:14.127Z,987.0
2017-09-08T01:58:15.696Z,987.0
2017-09-08T01:59:16.343Z,987.0
2017-09-08T02:00:17.148Z,987.0
2017-09-08T02:01:17.904Z,987.0
2017-09-08T02:02:18.629Z,987.0
2017-09-08T02:03:19.414Z,986.9
2017-09-08T02:04:20.126Z,986.9
2017-09-08T02:05:20.861Z,987.0
2017-09-08T02:06:21.684Z,986.9
2017-09-08T02:07:22.467Z,987.0
2017-09-08T02:08:23.351Z,986.9
2017-09-08T02:09:24.059Z,986.9
2017-09-08T02:10:25.098Z,986.9
2017-09-08T02:11:25.808Z,986.9
2017-09-08T02:12:26.558Z,986.8
2017-09-08T02:13:27.297Z,986.9
2017-09-08T02:14:28.059Z,986.9
2017-09-08T02:15:28.798Z,986.9
2017-09-08T02:16:29.506Z,986.8
2017-09-08T02:17:30.235Z,986.8
2017-09-08T02:18:31.049Z,986.8
2017-09-08T02:19:31.801Z,986.8
2017-09-08T02:20:32.501Z,986.8
2017-09-08T02:21:33.285Z,986.8
2017-09-08T02:22:33.999Z,986.8
2017-09-08T02:23:34.796Z,986.8
2017-09-08T02:24:35.547Z,986.8
2017-09-08T02:25:36.332Z,986.8
2017-09-08T02:26:37.063Z,986.8
2017-09-08T02:27:37.822Z,986.8
2017-09-08T02:28:38.611Z,986.8
2017-09-08T02:29:39.312Z,986.8
2017-09-08T02:30:40.039Z,986.8
2017-09-08T02:31:40.808Z,986.8
2017-09-08T02:32:41.527Z,986.8
2017-09-08T02:33:42.333Z,986.7
2017-09-08T02:34:43.087Z,986.8
2017-09-08T02:35:43.897Z,986.8
2017-09-08T02:36:44.639Z,986.8
2017-09-08T02:37:45.401Z,986.8
2017-09-08T02:38:46.156Z,986.8
2017-09-08T02:39:46.858Z,986.8
2017-09-08T02:40:47.625Z,986.8
2017-09-08T02:41:48.371Z,986.8
2017-09-08T02:42:49.084Z,986.8
2017-09-08T02:43:49.866Z,986.8
2017-09-08T02:44:50.592Z,986.8
2017-09-08T02:45:51.325Z,986.8
2017-09-08T02:46:52.055Z,986.8
2017-09-08T02:47:52.791Z,986.8
2017-09-08T02:48:53.527Z,986.7
2017-09-08T02:49:54.490Z,986.7
2017-09-08T02:50:55.229Z,986.7
2017-09-08T02:51:55.950Z,986.7
2017-09-08T02:52:56.691Z,986.7
2017-09-08T02:53:57.490Z,986.7
2017-09-08T02:54:58.218Z,986.7
2017-09-08T02:55:59.011Z,986.7
2017-09-08T02:56:59.751Z,986.7
2017-09-08T02:58:00.463Z,986.7
2017-09-08T02:59:01.165Z,986.7
2017-09-08T03:00:01.898Z,986.7
2017-09-08T03:01:02.558Z,986.7
2017-09-08T03:02:03.317Z,986.7
2017-09-08T03:03:04.097Z,986.6
2017-09-08T03:04:04.844Z,986.6
2017-09-08T03:05:05.571Z,986.6
2017-09-08T03:06:06.320Z,986.6
2017-09-08T03:07:07.059Z,986.6
2017-09-08T03:08:07.772Z,986.6
2017-09-08T03:09:08.547Z,986.5
2017-09-08T03:10:09.228Z,986.5
2017-09-08T03:11:09.964Z,986.5
2017-09-08T03:12:10.715Z,986.5
2017-09-08T03:13:11.429Z,986.5
2017-09-08T03:14:12.187Z,986.5
2017-09-08T03:15:13.099Z,986.5
2017-09-08T03:16:13.787Z,986.5
2017-09-08T03:17:14.529Z,986.5
2017-09-08T03:18:15.240Z,986.5
2017-09-08T03:19:16.003Z,986.5
2017-09-08T03:20:16.714Z,986.4
2017-09-08T03:21:17.534Z,986.4
2017-09-08T03:22:18.371Z,986.4
2017-09-08T03:23:19.109Z,986.4
2017-09-08T03:24:19.876Z,986.4
2017-09-08T03:25:20.729Z,986.4
2017-09-08T03:26:21.470Z,986.4
2017-09-08T03:27:22.212Z,986.4
2017-09-08T03:28:22.960Z,986.3
2017-09-08T03:29:23.749Z,986.4
2017-09-08T03:30:24.575Z,986.3
2017-09-08T03:31:25.255Z,986.4
2017-09-08T03:32:25.977Z,986.3
2017-09-08T03:33:26.725Z,986.4
2017-09-08T03:34:27.481Z,986.3
2017-09-08T03:35:28.286Z,986.3
2017-09-08T03:36:29.043Z,986.4
2017-09-08T03:37:29.871Z,986.4
2017-09-08T03:38:30.606Z,986.4
2017-09-08T03:39:31.404Z,986.3
2017-09-08T03:40:32.214Z,986.3
2017-09-08T03:41:32.963Z,986.3
2017-09-08T03:42:33.658Z,986.3
2017-09-08T03:43:34.450Z,986.3
2017-09-08T03:44:35.233Z,986.3
2017-09-08T03:45:36.435Z,986.2
2017-09-08T03:46:37.203Z,986.2
2017-09-08T03:47:37.927Z,986.2
2017-09-08T03:48:38.685Z,986.1
2017-09-08T03:49:39.407Z,986.1
2017-09-08T03:50:40.130Z,986.1
2017-09-08T03:51:40.833Z,986.1
2017-09-08T03:52:41.767Z,986.0
2017-09-08T03:53:42.540Z,986.0
2017-09-08T03:54:43.319Z,986.0
2017-09-08T03:55:44.048Z,986.0
2017-09-08T03:56:44.744Z,986.0
2017-09-08T03:57:45.478Z,986.0
2017-09-08T03:58:46.185Z,986.0
2017-09-08T03:59:46.913Z,986.0
2017-09-08T04:00:47.722Z,985.9
2017-09-08T04:01:48.458Z,985.9
2017-09-08T04:02:49.189Z,985.9
2017-09-08T04:03:49.916Z,985.9
2017-09-08T04:04:50.618Z,985.9
2017-09-08T04:05:51.427Z,985.9
2017-09-08T04:06:52.151Z,985.9
2017-09-08T04:07:52.869Z,985.9
2017-09-08T04:08:53.589Z,985.9
2017-09-08T04:09:54.360Z,985.9
2017-09-08T04:10:55.095Z,985.8
2017-09-08T04:11:55.829Z,985.8
2017-09-08T04:12:56.558Z,985.8
2017-09-08T04:13:57.330Z,985.8
2017-09-08T04:14:58.092Z,985.9
2017-09-08T04:15:58.891Z,985.9
2017-09-08T04:16:59.624Z,985.9
2017-09-08T04:18:00.362Z,985.8
2017-09-08T04:19:01.128Z,985.8
2017-09-08T04:20:01.929Z,985.8
2017-09-08T04:21:02.645Z,985.8
2017-09-08T04:22:03.401Z,985.8
2017-09-08T04:23:04.105Z,985.8
2017-09-08T04:24:04.856Z,985.8
2017-09-08T04:25:05.634Z,985.8
2017-09-08T04:26:06.359Z,985.8
2017-09-08T04:27:07.081Z,985.8
2017-09-08T04:28:07.783Z,985.8
2017-09-08T04:29:08.494Z,985.8
2017-09-08T04:30:09.229Z,985.7
2017-09-08T04:31:09.982Z,985.7
2017-09-08T04:32:10.706Z,985.7
2017-09-08T04:33:11.430Z,985.8
2017-09-08T04:34:12.154Z,985.8
2017-09-08T04:35:12.926Z,985.7
2017-09-08T04:36:13.780Z,985.8
2017-09-08T04:37:14.513Z,985.7
2017-09-08T04:38:15.263Z,985.7
2017-09-08T04:39:16.101Z,985.7
2017-09-08T04:40:16.798Z,985.7
2017-09-08T04:41:17.567Z,985.7
2017-09-08T04:42:18.360Z,985.7
2017-09-08T04:43:19.119Z,985.7
2017-09-08T04:44:19.835Z,985.6
2017-09-08T04:45:20.734Z,985.7
2017-09-08T04:46:21.416Z,985.6
2017-09-08T04:47:22.172Z,985.6
2017-09-08T04:48:22.852Z,985.6
2017-09-08T04:49:23.588Z,985.6
2017-09-08T04:50:24.410Z,985.6
2017-09-08T04:51:25.162Z,985.5
2017-09-08T04:52:25.875Z,985.5
2017-09-08T04:53:26.607Z,985.5
2017-09-08T04:54:27.302Z,985.5
2017-09-08T04:55:28.345Z,985.5
2017-09-08T04:56:29.003Z,985.5
2017-09-08T04:57:29.736Z,985.5
2017-09-08T04:58:30.471Z,985.5
2017-09-08T04:59:31.220Z,985.5
2017-09-08T05:00:32.020Z,985.5
2017-09-08T05:01:32.720Z,985.5
2017-09-08T05:02:33.454Z,985.4
2017-09-08T05:03:34.210Z,985.4
2017-09-08T05:04:34.924Z,985.5
2017-09-08T05:05:35.704Z,985.5
2017-09-08T05:06:36.466Z,985.5
2017-09-08T05:07:37.233Z,985.5
2017-09-08T05:08:37.940Z,985.6
2017-09-08T05:09:39.258Z,985.6
2017-09-08T05:10:39.980Z,985.6
2017-09-08T05:11:40.709Z,985.6
2017-09-08T05:12:41.454Z,985.6
2017-09-08T05:13:42.277Z,985.6
2017-09-08T05:14:43.027Z,985.6
2017-09-08T05:15:43.761Z,985.6
2017-09-08T05:16:44.487Z,985.7
2017-09-08T05:17:45.188Z,985.7
2017-09-08T05:18:45.939Z,985.6
2017-09-08T05:19:46.693Z,985.7
2017-09-08T05:20:47.479Z,985.7
2017-09-08T05:21:48.310Z,985.7
2017-09-08T05:22:49.012Z,985.6
2017-09-08T05:23:49.734Z,985.6
2017-09-08T05:24:50.513Z,985.6
2017-09-08T05:25:51.246Z,985.6
2017-09-08T05:26:52.072Z,985.6
2017-09-08T05:27:52.729Z,985.7
2017-09-08T05:28:53.478Z,985.6
2017-09-08T05:29:54.215Z,985.6
2017-09-08T05:30:55.149Z,985.6
2017-09-08T05:31:55.786Z,985.6
2017-09-08T05:32:56.549Z,985.6
2017-09-08T05:33:57.299Z,985.6
2017-09-08T05:34:58.068Z,985.6
2017-09-08T05:35:58.832Z,985.5
2017-09-08T05:36:59.547Z,985.6
2017-09-08T05:38:00.342Z,985.6
2017-09-08T05:39:00.985Z,985.5
2017-09-08T05:40:01.723Z,985.5
2017-09-08T05:41:02.554Z,985.5
2017-09-08T05:42:03.294Z,985.5
2017-09-08T05:43:04.005Z,985.4
2017-09-08T05:44:04.707Z,985.4
2017-09-08T05:45:05.526Z,985.4
2017-09-08T05:46:06.310Z,985.4
2017-09-08T05:47:06.987Z,985.4
2017-09-08T05:48:07.693Z,985.4
2017-09-08T05:49:08.464Z,985.3
2017-09-08T05:50:09.234Z,985.4
2017-09-08T05:51:09.989Z,985.4
2017-09-08T05:52:10.717Z,985.4
2017-09-08T05:53:11.502Z,985.4
2017-09-08T05:54:12.162Z,985.4
2017-09-08T05:55:12.896Z,985.4
2017-09-08T05:57:29.214Z,985.3
2017-09-08T05:58:29.965Z,985.4
2017-09-08T05:59:30.693Z,985.4
2017-09-08T06:00:31.525Z,985.4
2017-09-08T06:01:32.189Z,985.3
2017-09-08T06:02:32.876Z,985.4
2017-09-08T06:03:33.608Z,985.4
2017-09-08T06:04:34.330Z,985.4
2017-09-08T06:05:35.133Z,985.4
2017-09-08T06:06:36.043Z,985.4
2017-09-08T06:07:36.754Z,985.3
2017-09-08T06:08:37.501Z,985.3
2017-09-08T06:09:38.212Z,985.3
2017-09-08T06:10:38.980Z,985.3
2017-09-08T06:11:39.751Z,985.3
2017-09-08T06:12:40.449Z,985.2
2017-09-08T06:13:41.162Z,985.3
2017-09-08T06:14:41.861Z,985.3
2017-09-08T06:15:42.622Z,985.3
2017-09-08T06:16:43.336Z,985.3
2017-09-08T06:17:44.021Z,985.3
2017-09-08T06:18:44.748Z,985.3
2017-09-08T06:19:45.457Z,985.4
2017-09-08T06:20:46.215Z,985.4
2017-09-08T06:21:46.924Z,985.4
2017-09-08T06:22:47.639Z,985.4
2017-09-08T06:23:48.372Z,985.4
2017-09-08T06:24:49.136Z,985.4
2017-09-08T06:25:49.800Z,985.4
2017-09-08T06:26:50.571Z,985.3
2017-09-08T06:27:51.299Z,985.3
2017-09-08T06:28:52.091Z,985.3
2017-09-08T06:29:52.815Z,985.3
2017-09-08T06:30:53.702Z,985.4
2017-09-08T06:31:54.681Z,985.4
2017-09-08T06:32:55.504Z,985.4
2017-09-08T06:33:56.258Z,985.3
2017-09-08T06:34:56.959Z,985.3
2017-09-08T06:35:57.750Z,985.3
2017-09-08T06:36:58.537Z,985.3
2017-09-08T06:37:59.413Z,985.3
2017-09-08T06:39:00.246Z,985.3
2017-09-08T06:40:00.973Z,985.3
2017-09-08T06:41:01.870Z,985.3
2017-09-08T06:42:02.793Z,985.4
2017-09-08T06:43:03.665Z,985.3
2017-09-08T06:44:04.348Z,985.3
2017-09-08T06:45:05.535Z,985.3
2017-09-08T06:46:06.279Z,985.3
2017-09-08T06:47:07.019Z,985.2
2017-09-08T06:48:07.887Z,985.2
2017-09-08T06:49:08.846Z,985.2
2017-09-08T06:50:09.669Z,985.2
2017-09-08T06:51:10.403Z,985.2
2017-09-08T06:52:11.174Z,985.2
2017-09-08T06:53:11.935Z,985.1
2017-09-08T06:54:12.764Z,985.1
2017-09-08T06:55:13.472Z,985.1
2017-09-08T06:56:14.227Z,985.1
2017-09-08T06:57:14.992Z,985.1
2017-09-08T06:58:15.721Z,985.1
2017-09-08T06:59:16.470Z,985.1
2017-09-08T07:00:17.203Z,985.1
2017-09-08T07:01:17.939Z,985.0
2017-09-08T07:02:18.760Z,985.0
2017-09-08T07:03:19.467Z,985.0
2017-09-08T07:04:20.193Z,985.0
2017-09-08T07:05:20.991Z,985.0
2017-09-08T07:06:21.707Z,984.9
2017-09-08T07:07:22.424Z,985.0
2017-09-08T07:08:23.233Z,985.0
2017-09-08T07:09:23.952Z,984.9
2017-09-08T07:10:24.756Z,984.9
2017-09-08T07:11:25.513Z,984.9
2017-09-08T07:12:26.243Z,984.9
2017-09-08T07:13:27.013Z,984.9
2017-09-08T07:14:27.724Z,984.9
2017-09-08T07:15:28.516Z,984.9
2017-09-08T07:16:29.231Z,984.9
2017-09-08T07:17:29.977Z,984.9
2017-09-08T07:18:30.744Z,984.9
2017-09-08T07:19:31.527Z,984.9
2017-09-08T07:20:32.240Z,984.8
2017-09-08T07:21:32.978Z,984.8
2017-09-08T07:22:33.726Z,984.8
2017-09-08T07:23:34.455Z,984.8
2017-09-08T07:24:35.251Z,984.8
2017-09-08T07:25:35.974Z,984.8
2017-09-08T07:26:36.724Z,984.7
2017-09-08T07:27:37.499Z,984.7
2017-09-08T07:28:38.205Z,984.7
2017-09-08T07:29:38.946Z,984.7
2017-09-08T07:30:39.680Z,984.7
2017-09-08T07:31:40.633Z,984.7
2017-09-08T07:32:41.281Z,984.7
2017-09-08T07:33:42.045Z,984.7
2017-09-08T07:34:42.775Z,984.7
2017-09-08T07:35:43.611Z,984.7
2017-09-08T07:36:44.279Z,984.7
2017-09-08T07:37:45.067Z,984.7
2017-09-08T07:38:45.833Z,984.6
2017-09-08T07:39:47.066Z,984.6
2017-09-08T07:40:47.876Z,984.6
2017-09-08T07:41:48.587Z,984.6
2017-09-08T07:42:49.665Z,984.6
2017-09-08T07:43:50.375Z,984.6
2017-09-08T07:44:51.060Z,984.5
2017-09-08T07:45:51.821Z,984.6
2017-09-08T07:46:52.554Z,984.6
2017-09-08T07:47:53.351Z,984.6
2017-09-08T07:48:54.180Z,984.5
2017-09-08T07:49:54.981Z,984.5
2017-09-08T07:50:55.805Z,984.6
2017-09-08T07:51:56.487Z,984.5
2017-09-08T07:52:57.264Z,984.4
2017-09-08T07:53:57.965Z,984.4
2017-09-08T07:54:58.757Z,984.4
2017-09-08T07:55:59.506Z,984.4
2017-09-08T07:57:00.226Z,984.4
2017-09-08T07:58:00.945Z,984.4
2017-09-08T07:59:01.693Z,984.3
2017-09-08T08:00:02.545Z,984.2
2017-09-08T08:01:03.269Z,984.3
2017-09-08T08:02:04.024Z,984.3
2017-09-08T08:03:04.873Z,984.3
2017-09-08T08:04:05.576Z,984.3
2017-09-08T08:05:06.355Z,984.2
2017-09-08T08:06:07.127Z,984.3
2017-09-08T08:07:07.954Z,984.3
2017-09-08T08:08:08.764Z,984.2
2017-09-08T08:09:09.541Z,984.3
2017-09-08T08:10:10.308Z,984.3
2017-09-08T08:11:11.082Z,984.3
2017-09-08T08:12:11.836Z,984.3
2017-09-08T08:13:12.570Z,984.3
2017-09-08T08:14:13.342Z,984.4
2017-09-08T08:15:14.147Z,984.3
2017-09-08T08:16:14.963Z,984.4
2017-09-08T08:17:15.654Z,984.3
2017-09-08T08:18:16.458Z,984.4
2017-09-08T08:19:17.194Z,984.3
2017-09-08T08:20:17.923Z,984.3
2017-09-08T08:21:18.632Z,984.3
2017-09-08T08:22:19.360Z,984.4
2017-09-08T08:23:20.084Z,984.4
2017-09-08T08:24:20.853Z,984.3
2017-09-08T08:25:21.613Z,984.3
2017-09-08T08:26:22.344Z,984.3
2017-09-08T08:27:23.153Z,984.2
2017-09-08T08:28:23.812Z,984.3
2017-09-08T08:29:25.848Z,984.2
2017-09-08T08:30:26.511Z,984.3
2017-09-08T08:31:27.242Z,984.3
2017-09-08T08:32:27.981Z,984.3
2017-09-08T08:33:28.757Z,984.2
2017-09-08T08:34:29.588Z,984.3
2017-09-08T08:35:30.378Z,984.3
2017-09-08T08:36:31.054Z,984.2
2017-09-08T08:37:31.971Z,984.3
2017-09-08T08:38:32.624Z,984.2
2017-09-08T08:39:33.347Z,984.3
2017-09-08T08:40:34.173Z,984.3
2017-09-08T08:41:35.049Z,984.3
2017-09-08T08:42:35.828Z,984.3
2017-09-08T08:43:36.629Z,984.3
2017-09-08T08:44:37.464Z,984.3
2017-09-08T08:45:38.793Z,984.4
2017-09-08T08:46:39.536Z,984.3
2017-09-08T08:47:40.258Z,984.4
2017-09-08T08:48:41.052Z,984.4
2017-09-08T08:49:41.846Z,984.3
2017-09-08T08:50:42.638Z,984.4
2017-09-08T08:51:43.412Z,984.3
2017-09-08T08:52:44.136Z,984.3
2017-09-08T08:53:44.878Z,984.2
2017-09-08T08:54:45.578Z,984.3
2017-09-08T08:55:46.449Z,984.3
2017-09-08T08:56:47.439Z,984.3
2017-09-08T08:57:48.108Z,984.3
2017-09-08T08:58:48.917Z,984.2
2017-09-08T08:59:49.603Z,984.3
2017-09-08T09:00:50.386Z,984.2
2017-09-08T09:01:51.075Z,984.2
2017-09-08T09:02:51.827Z,984.3
2017-09-08T09:03:52.550Z,984.3
2017-09-08T09:04:53.261Z,984.3
2017-09-08T09:05:54.070Z,984.3
2017-09-08T09:06:54.827Z,984.3
2017-09-08T09:07:55.685Z,984.3
2017-09-08T09:08:56.484Z,984.3
2017-09-08T09:09:57.303Z,984.3
2017-09-08T09:10:57.987Z,984.2
2017-09-08T09:11:58.857Z,984.2
2017-09-08T09:12:59.716Z,984.1
2017-09-08T09:14:00.523Z,984.2
2017-09-08T09:15:01.413Z,984.2
2017-09-08T09:16:02.199Z,984.2
2017-09-08T09:17:03.001Z,984.2
2017-09-08T09:18:03.729Z,984.1
2017-09-08T09:19:04.422Z,984.2
2017-09-08T09:20:05.159Z,984.1
2017-09-08T09:21:05.960Z,984.1
2017-09-08T09:22:06.644Z,984.1
2017-09-08T09:23:07.424Z,984.1
2017-09-08T09:24:08.191Z,984.0
2017-09-08T09:25:08.945Z,984.0
2017-09-08T09:26:09.769Z,984.0
2017-09-08T09:27:10.495Z,984.0
2017-09-08T09:28:11.186Z,984.0
2017-09-08T09:29:11.959Z,984.0
2017-09-08T09:30:12.740Z,984.0
2017-09-08T09:31:13.490Z,983.9
2017-09-08T09:32:14.173Z,984.0
2017-09-08T09:33:14.899Z,984.0
2017-09-08T09:34:15.687Z,984.0
2017-09-08T09:35:16.444Z,984.0
2017-09-08T09:36:17.284Z,983.9
2017-09-08T09:37:17.953Z,983.9
2017-09-08T09:38:18.682Z,983.9
2017-09-08T09:39:19.390Z,983.8
2017-09-08T09:40:20.208Z,983.8
2017-09-08T09:41:20.953Z,983.8
2017-09-08T09:42:21.755Z,983.8
2017-09-08T09:43:22.508Z,983.7
2017-09-08T09:44:23.250Z,983.8
2017-09-08T09:45:23.997Z,983.8
2017-09-08T09:46:24.768Z,983.8
2017-09-08T09:47:25.468Z,983.8
2017-09-08T09:48:26.212Z,983.8
2017-09-08T09:49:26.987Z,983.8
2017-09-08T09:50:27.769Z,983.8
2017-09-08T09:51:28.494Z,983.8
2017-09-08T09:52:29.568Z,983.7
2017-09-08T09:53:30.298Z,983.7
2017-09-08T09:54:31.118Z,983.7
2017-09-08T09:55:31.792Z,983.7
2017-09-08T09:56:32.484Z,983.7
2017-09-08T09:57:38.208Z,983.7
2017-09-08T09:58:36.635Z,983.7
2017-09-08T09:59:37.441Z,983.7
2017-09-08T10:00:38.933Z,983.8
2017-09-08T10:01:39.791Z,983.7
2017-09-08T10:02:40.538Z,983.7
2017-09-08T10:03:41.266Z,983.7
2017-09-08T10:04:41.996Z,983.8
2017-09-08T10:05:42.724Z,983.7
2017-09-08T10:06:43.454Z,983.7
2017-09-08T10:07:44.201Z,983.7
2017-09-08T10:08:44.940Z,983.7
2017-09-08T10:09:45.755Z,983.7
2017-09-08T10:10:46.623Z,983.7
2017-09-08T10:11:47.293Z,983.6
2017-09-08T10:12:48.076Z,983.7
2017-09-08T10:13:48.802Z,983.6
2017-09-08T10:14:49.551Z,983.6
2017-09-08T10:15:50.836Z,983.6
2017-09-08T10:16:51.492Z,983.6
2017-09-08T10:17:52.216Z,983.6
2017-09-08T10:18:52.942Z,983.6
2017-09-08T10:19:53.768Z,983.6
2017-09-08T10:20:54.516Z,983.6
2017-09-08T10:21:55.265Z,983.6
2017-09-08T10:22:55.939Z,983.6
2017-09-08T10:23:56.688Z,983.5
2017-09-08T10:24:57.391Z,983.5
2017-09-08T10:25:58.305Z,983.5
2017-09-08T10:26:58.986Z,983.6
2017-09-08T10:27:59.754Z,983.6
2017-09-08T10:29:00.608Z,983.5
2017-09-08T10:30:01.401Z,983.5
2017-09-08T10:31:02.250Z,983.6
2017-09-08T10:32:02.928Z,983.6
2017-09-08T10:33:03.701Z,983.5
2017-09-08T10:34:04.456Z,983.6
2017-09-08T10:35:05.129Z,983.6
2017-09-08T10:36:05.945Z,983.6
2017-09-08T10:37:06.730Z,983.6
2017-09-08T10:38:07.567Z,983.5
2017-09-08T10:39:08.288Z,983.6
2017-09-08T10:40:09.023Z,983.6
2017-09-08T10:41:09.741Z,983.6
2017-09-08T10:42:10.520Z,983.6
2017-09-08T10:43:11.243Z,983.5
2017-09-08T10:44:12.016Z,983.5
2017-09-08T10:45:12.980Z,983.5
2017-09-08T10:46:13.683Z,983.5
2017-09-08T10:47:14.391Z,983.5
2017-09-08T10:48:15.135Z,983.5
2017-09-08T10:49:15.861Z,983.5
2017-09-08T10:50:16.637Z,983.5
2017-09-08T10:51:17.441Z,983.5
2017-09-08T10:52:18.205Z,983.5
2017-09-08T10:53:18.958Z,983.4
2017-09-08T10:54:19.727Z,983.5
2017-09-08T10:55:20.508Z,983.5
2017-09-08T10:56:21.269Z,983.5
2017-09-08T10:57:22.015Z,983.5
2017-09-08T10:58:22.742Z,983.4
2017-09-08T10:59:23.477Z,983.4
2017-09-08T11:00:24.388Z,983.5
2017-09-08T11:01:25.203Z,983.4
2017-09-08T11:02:26.036Z,983.4
2017-09-08T11:03:26.945Z,983.4
2017-09-08T11:04:27.693Z,983.5
2017-09-08T11:05:28.441Z,983.5
2017-09-08T11:06:29.241Z,983.5
2017-09-08T11:07:30.007Z,983.4
2017-09-08T11:08:30.790Z,983.5
2017-09-08T11:09:31.545Z,983.5
2017-09-08T11:10:32.288Z,983.6
2017-09-08T11:11:33.071Z,983.6
2017-09-08T11:12:33.797Z,983.5
2017-09-08T11:13:34.543Z,983.6
2017-09-08T11:14:35.288Z,983.5
2017-09-08T11:15:36.112Z,983.6
2017-09-08T11:16:36.803Z,983.6
2017-09-08T11:17:37.537Z,983.5
2017-09-08T11:18:38.293Z,983.5
2017-09-08T11:19:39.060Z,983.5
2017-09-08T11:20:39.787Z,983.4
2017-09-08T11:21:40.521Z,983.5
2017-09-08T11:22:41.229Z,983.4
2017-09-08T11:23:41.969Z,983.4
2017-09-08T11:24:42.672Z,983.4
2017-09-08T11:25:43.408Z,983.4
2017-09-08T11:26:44.225Z,983.5
2017-09-08T11:27:44.956Z,983.6
2017-09-08T11:28:45.740Z,983.4
2017-09-08T11:29:46.487Z,983.5
2017-09-08T11:30:47.288Z,983.4
2017-09-08T11:31:48.029Z,983.4
2017-09-08T11:32:48.861Z,983.4
2017-09-08T11:33:49.597Z,983.4
2017-09-08T11:34:50.274Z,983.4
2017-09-08T11:35:51.165Z,983.4
2017-09-08T11:36:51.889Z,983.3
2017-09-08T11:37:52.824Z,983.4
2017-09-08T11:38:53.533Z,983.4
2017-09-08T11:39:54.252Z,983.3
2017-09-08T11:40:55.024Z,983.3
2017-09-08T11:41:55.807Z,983.3
2017-09-08T11:42:57.107Z,983.3
2017-09-08T11:43:57.770Z,983.3
2017-09-08T11:46:14.355Z,983.3
2017-09-08T11:47:15.060Z,983.3
2017-09-08T11:48:15.850Z,983.3
2017-09-08T11:49:16.532Z,983.3
2017-09-08T11:50:17.315Z,983.3
2017-09-08T11:51:18.121Z,983.3
2017-09-08T11:52:18.930Z,983.4
2017-09-08T11:53:19.658Z,983.4
2017-09-08T11:54:20.390Z,983.3
2017-09-08T11:55:21.299Z,983.3
2017-09-08T11:56:21.994Z,983.3
2017-09-08T11:57:22.718Z,983.2
2017-09-08T11:58:23.426Z,983.3
2017-09-08T11:59:24.173Z,983.2
2017-09-08T12:00:25.854Z,983.3
2017-09-08T12:01:26.634Z,983.2
2017-09-08T12:02:27.492Z,983.2
2017-09-08T12:03:28.221Z,983.2
2017-09-08T12:04:28.968Z,983.2
2017-09-08T12:05:29.745Z,983.1
2017-09-08T12:06:30.556Z,983.1
2017-09-08T12:07:31.204Z,983.1
2017-09-08T12:08:31.991Z,983.1
2017-09-08T12:09:32.880Z,983.0
2017-09-08T12:10:34.172Z,983.0
2017-09-08T12:11:36.099Z,983.0
2017-09-08T12:12:37.173Z,983.0
2017-09-08T12:13:38.320Z,983.1
2017-09-08T12:14:39.043Z,983.1
2017-09-08T12:15:40.164Z,983.0
2017-09-08T12:16:40.860Z,983.0
2017-09-08T12:17:41.626Z,983.0
2017-09-08T12:18:42.350Z,982.9
2017-09-08T12:19:43.099Z,982.9
2017-09-08T12:20:43.920Z,982.9
2017-09-08T12:21:44.632Z,982.8
2017-09-08T12:22:45.404Z,982.9
2017-09-08T12:23:46.247Z,982.9
2017-09-08T12:24:47.024Z,982.8
2017-09-08T12:25:47.783Z,982.8
2017-09-08T12:26:48.503Z,982.7
2017-09-08T12:27:49.238Z,982.7
2017-09-08T12:28:50.069Z,982.7
2017-09-08T12:29:50.831Z,982.7
2017-09-08T12:30:51.611Z,982.7
2017-09-08T12:31:52.374Z,982.7
2017-09-08T12:32:53.167Z,982.7
2017-09-08T12:33:54.026Z,982.7
2017-09-08T12:34:54.812Z,982.8
2017-09-08T12:35:55.477Z,982.7
2017-09-08T12:36:56.303Z,982.7
2017-09-08T12:37:56.987Z,982.7
2017-09-08T12:38:57.850Z,982.7
2017-09-08T12:39:58.670Z,982.7
2017-09-08T12:40:59.362Z,982.8
2017-09-08T12:42:00.061Z,982.7
2017-09-08T12:43:01.037Z,982.7
2017-09-08T12:44:01.762Z,982.7
2017-09-08T12:45:02.516Z,982.8
2017-09-08T12:46:03.226Z,982.8
2017-09-08T12:47:04.054Z,982.8
2017-09-08T12:48:04.996Z,982.8
2017-09-08T12:49:05.893Z,982.8
2017-09-08T12:50:06.657Z,982.8
2017-09-08T12:51:07.355Z,982.7
2017-09-08T12:52:08.363Z,982.8
2017-09-08T12:53:09.468Z,982.7
2017-09-08T12:54:10.181Z,982.7
2017-09-08T12:55:10.876Z,982.7
2017-09-08T12:56:11.697Z,982.7
2017-09-08T12:57:12.472Z,982.7
2017-09-08T12:58:14.284Z,982.6
2017-09-08T12:59:15.172Z,982.6
2017-09-08T13:00:15.894Z,982.6
2017-09-08T13:01:16.643Z,982.6
2017-09-08T13:02:17.431Z,982.6
2017-09-08T13:03:18.459Z,982.6
2017-09-08T13:04:19.163Z,982.6
2017-09-08T13:05:19.985Z,982.6
2017-09-08T13:06:21.019Z,982.5
2017-09-08T13:07:21.740Z,982.6
2017-09-08T13:08:22.492Z,982.5
2017-09-08T13:09:24.107Z,982.5